LRTR/TSR METAR and TAF weather

Enter ICAO airport designator
Station Type Date Time Source
LRTR METAR 2021/03/09 10:30 UTC NOAA

LRTR 091030Z 01008KT 350V050 CAVOK 06/M07 Q1020 NOSIG


Station Type Date Time Source
LRTR Decoded METAR 2021/03/09 10:30 UTC NOAA

Timisoara, Romania (LRTR) 45-46N 021-15E 88M
Mar 09, 2021 - 05:30 AM EST / 2021.03.09 1030 UTC
Wind: from the N (010 degrees) at 9 MPH (8 KT) (direction variable):0
Visibility: greater than 7 mile(s):0
Temperature: 42 F (6 C)
Dew Point: 19 F (-7 C)
Relative Humidity: 38%
Pressure (altimeter): 30.12 in. Hg (1020 hPa)
ob: LRTR 091030Z 01008KT 350V050 CAVOK 06/M07 Q1020 NOSIG
cycle: 10

Station Type Date Time Source
LRTR TAF 2021/03/09 06:33 UTC NOAA

TAF LRTR 090500Z 0906/1006 VRB04KT CAVOK
BECMG 1000/1002 01010KT

Example: see airport list